Terminal Aerodrome Forecast
Issued by NWS New Orleans/Baton Rouge, LA

Home | Current Version | Previous Version | Text Only | Print | Product List | Glossary On
Versions: 1 2 3 4 5 6 7 8 9 10 11 12 13
337
FTUS44 KLIX 201125
TAFBTR
TAF
KBTR 201125Z 2012/2112 04003KT P6SM VCSH SCT035 BKN120
     FM202100 15009KT P6SM BKN025 BKN030 PROB30 2021/2024 4SM -SHRA
      OVC025
     FM210100 13008KT P6SM BKN050 BKN060
     FM210600 13006KT P6SM SCT008
     FM210800 12005KT 3SM BR BKN010
     FM211000 12005KT 2SM BR BKN020=

USA.gov is the U.S. government's official web portal to all federal, state and local government web resources and services.